This is the latest recevied weather packets stored in our database for station/object CT4TX-11. If no packets are shown the sender has not sent any weather packets the latest 10 day(s).
| Time | Temp. | Humidity | Pressure | Rain* | Wind** | Luminosity | Snow |
|---|---|---|---|---|---|---|---|
| 1777156529 | 28.33° C | 39% | 1004.6 hPa | - | - | - | - |
| 1777155629 | 28.33° C | 39% | 1004.5 hPa | - | - | - | - |
| 1777154728 | 28.33° C | 40% | 1004.4 hPa | - | - | - | - |
| 1777153828 | 27.22° C | 40% | 1004.6 hPa | - | - | - | - |
| 1777152928 | 27.78° C | 40% | 1004.6 hPa | - | - | - | - |
| 1777152027 | 27.78° C | 39% | 1004.7 hPa | - | - | - | - |
| 1777151127 | 27.78° C | 39% | 1004.9 hPa | - | - | - | - |
| 1777150227 | 27.78° C | 39% | 1004.9 hPa | - | - | - | - |
| 1777149327 | 27.78° C | 38% | 1004.9 hPa | - | - | - | - |
| 1777148426 | 28.33° C | 38% | 1004.9 hPa | - | - | - | - |
| 1777147525 | 28.33° C | 38% | 1004.6 hPa | - | - | - | - |
| 1777146631 | 28.33° C | 37% | 1004.3 hPa | - | - | - | - |
| 1777145730 | 30° C | 34% | 1004.3 hPa | - | - | - | - |
| 1777144830 | 30° C | 34% | 1004.2 hPa | - | - | - | - |
| 1777143930 | 29.44° C | 34% | 1003.9 hPa | - | - | - | - |
| 1777143030 | 29.44° C | 35% | 1003.8 hPa | - | - | - | - |
| 1777142129 | 28.89° C | 36% | 1003.8 hPa | - | - | - | - |
| 1777141229 | 28.33° C | 38% | 1003.7 hPa | - | - | - | - |
| 1777140329 | 28.33° C | 40% | 1003.3 hPa | - | - | - | - |
| 1777139429 | 28.33° C | 38% | 1003.4 hPa | - | - | - | - |
| 1777138529 | 28.33° C | 39% | 1003.5 hPa | - | - | - | - |
| 1777137628 | 28.89° C | 39% | 1003.6 hPa | - | - | - | - |
| 1777136728 | 28.89° C | 38% | 1003.3 hPa | - | - | - | - |
| 1777135828 | 28.89° C | 38% | 1003.2 hPa | - | - | - | - |
| 1777134928 | 28.89° C | 39% | 1002.9 hPa | - | - | - | - |
* Rain since midnight (hover to see other rain measurements)
** Current wind speed in m/s (hover to see current wind gust speed)